Time;durP1;ratioP1;P1;durP2;ratioP2;P2;SDS_P1;SDS_P2;PMS_P1;PMS_P2;Temp;Humidity;BMP_temperature;BMP_pressure;BME280_temperature;BME280_humidity;BME280_pressure;Samples;Min_cycle;Max_cycle;Signal;HPM_P1;HPM_P2
2021/07/31 00:01:58;;;;;;;3.53;2.35;;;17.30;57.20;;;;;;5096045;28;20024;-59
2021/07/31 00:04:25;;;;;;;3.28;2.25;;;17.30;57.30;;;;;;5090994;28;20047;-53
2021/07/31 00:06:52;;;;;;;3.95;2.70;;;17.20;56.90;;;;;;5076701;28;20114;-58
2021/07/31 00:09:20;;;;;;;2.33;2.03;;;17.20;58.00;;;;;;5094685;28;20035;-58
2021/07/31 00:11:47;;;;;;;7.53;2.28;;;17.10;58.40;;;;;;5093177;28;20023;-57
2021/07/31 00:14:15;;;;;;;4.25;2.40;;;17.10;58.00;;;;;;5094408;28;20034;-57
2021/07/31 00:16:43;;;;;;;4.18;2.55;;;17.10;58.80;;;;;;5091210;28;20028;-58
2021/07/31 00:19:10;;;;;;;2.83;2.25;;;17.10;59.70;;;;;;5091242;28;20115;-57
2021/07/31 00:21:37;;;;;;;4.15;2.53;;;17.20;59.90;;;;;;5093835;28;20046;-61
2021/07/31 00:24:05;;;;;;;4.22;2.00;;;17.50;59.40;;;;;;5095621;28;20081;-56
2021/07/31 00:26:32;;;;;;;5.22;2.28;;;17.80;58.20;;;;;;5090475;28;20428;-58
2021/07/31 00:29:01;;;;;;;3.88;2.72;;;17.80;57.00;;;;;;5094396;28;20051;-56
2021/07/31 00:31:28;;;;;;;3.92;2.00;;;17.80;57.00;;;;;;5096662;28;20139;-51
2021/07/31 00:33:56;;;;;;;2.38;2.00;;;17.90;57.30;;;;;;5089262;27;20432;-58
2021/07/31 00:36:26;;;;;;;2.75;2.00;;;17.90;57.10;;;;;;5091920;28;20118;-60
2021/07/31 00:38:54;;;;;;;3.65;1.90;;;17.90;57.00;;;;;;5099466;28;20027;-62
2021/07/31 00:41:24;;;;;;;2.97;2.10;;;17.80;56.60;;;;;;5097189;28;20039;-59
2021/07/31 00:43:52;;;;;;;3.55;2.30;;;17.80;57.10;;;;;;5097087;28;20115;-63
2021/07/31 00:46:19;;;;;;;3.33;1.60;;;17.90;57.00;;;;;;5090225;28;20040;-59
2021/07/31 00:48:47;;;;;;;4.40;1.83;;;17.90;56.30;;;;;;5096235;28;20031;-63
2021/07/31 00:51:16;;;;;;;4.45;1.75;;;17.80;57.40;;;;;;5096340;28;20108;-62
2021/07/31 00:53:48;;;;;;;4.35;2.35;;;17.80;57.50;;;;;;5093105;28;20032;-54
2021/07/31 00:56:16;;;;;;;3.53;2.53;;;17.80;57.70;;;;;;5087716;28;20030;-58
2021/07/31 00:58:44;;;;;;;3.20;2.00;;;17.70;57.70;;;;;;5095668;28;20035;-58
2021/07/31 01:01:11;;;;;;;3.10;1.70;;;17.70;58.20;;;;;;5096959;28;20065;-61
2021/07/31 01:03:40;;;;;;;8.25;1.83;;;17.80;58.30;;;;;;5095604;28;20047;-53
2021/07/31 01:06:13;;;;;;;2.30;1.70;;;17.80;57.20;;;;;;5090236;28;20501;-57
2021/07/31 01:08:41;;;;;;;2.50;1.63;;;17.80;57.60;;;;;;5093787;28;20049;-57
2021/07/31 01:11:08;;;;;;;3.88;1.80;;;17.80;57.30;;;;;;5075537;28;20060;-57
2021/07/31 01:13:36;;;;;;;2.22;1.50;;;17.80;56.20;;;;;;5094491;28;20032;-58
2021/07/31 01:16:08;;;;;;;2.53;1.63;;;17.80;56.20;;;;;;5071892;28;20032;-59
2021/07/31 01:18:36;;;;;;;3.75;1.75;;;17.80;56.60;;;;;;5078611;28;20089;-56
2021/07/31 01:21:04;;;;;;;3.22;1.90;;;17.80;56.60;;;;;;5095737;28;20039;-59
2021/07/31 01:23:32;;;;;;;1.90;1.20;;;17.70;56.90;;;;;;5075660;28;20032;-60
2021/07/31 01:25:59;;;;;;;2.20;1.50;;;17.70;56.50;;;;;;5095231;28;20113;-61
2021/07/31 01:28:27;;;;;;;4.28;1.50;;;17.70;57.60;;;;;;5092237;28;20505;-60
2021/07/31 01:30:54;;;;;;;1.65;1.33;;;17.60;58.10;;;;;;5092365;28;20039;-59
2021/07/31 01:33:22;;;;;;;2.88;1.80;;;17.50;58.80;;;;;;5096000;28;20027;-56
2021/07/31 01:35:49;;;;;;;3.13;1.30;;;17.50;58.80;;;;;;5093523;28;20039;-59
2021/07/31 01:38:16;;;;;;;2.55;1.60;;;17.50;58.90;;;;;;5095995;28;20028;-57
2021/07/31 01:40:44;;;;;;;4.40;1.50;;;17.50;58.60;;;;;;5089449;28;20112;-59
2021/07/31 01:43:17;;;;;;;3.25;1.25;;;17.50;58.60;;;;;;5095918;28;20106;-57
2021/07/31 01:45:47;;;;;;;2.80;1.40;;;17.50;57.90;;;;;;5092007;28;20079;-58
2021/07/31 01:48:14;;;;;;;1.80;1.48;;;17.50;58.90;;;;;;5065689;28;20386;-61
2021/07/31 01:50:44;;;;;;;2.03;1.30;;;17.50;59.20;;;;;;5077288;28;20038;-58
2021/07/31 01:53:12;;;;;;;2.95;1.58;;;17.50;59.00;;;;;;5096497;28;20038;-60
2021/07/31 01:55:39;;;;;;;2.33;1.60;;;17.40;59.60;;;;;;5097273;28;20350;-56
2021/07/31 01:58:07;;;;;;;2.60;1.40;;;17.40;59.70;;;;;;5096520;28;20036;-58
2021/07/31 02:00:47;;;;;;;2.38;1.40;;;17.40;59.70;;;;;;5069795;28;20040;-57
2021/07/31 02:03:32;;;;;;;2.83;1.58;;;17.30;60.10;;;;;;5070913;28;20036;-53
2021/07/31 02:06:13;;;;;;;2.75;1.48;;;17.30;60.30;;;;;;5089684;28;20028;-56
2021/07/31 02:08:57;;;;;;;1.88;1.27;;;17.50;61.10;;;;;;5093454;28;20040;-60
2021/07/31 02:11:24;;;;;;;2.25;1.40;;;17.50;60.40;;;;;;5091969;28;20027;-52
2021/07/31 02:13:55;;;;;;;1.95;1.10;;;17.80;60.40;;;;;;5074243;28;20073;-57
2021/07/31 02:16:39;;;;;;;2.58;1.73;;;17.90;60.50;;;;;;5077047;28;20038;-62
2021/07/31 02:19:06;;;;;;;1.77;1.23;;;18.10;59.60;;;;;;5095099;28;20055;-57
2021/07/31 02:21:34;;;;;;;1.77;1.20;;;18.40;58.70;;;;;;5098070;28;20553;-60
2021/07/31 02:24:01;;;;;;;1.65;1.20;;;18.50;57.40;;;;;;5093375;28;20067;-61
2021/07/31 02:26:28;;;;;;;3.10;1.00;;;18.50;57.70;;;;;;5070455;28;20530;-53
2021/07/31 02:28:56;;;;;;;2.35;1.25;;;18.50;57.60;;;;;;5089626;28;20056;-54
2021/07/31 02:31:23;;;;;;;3.00;1.30;;;18.50;57.20;;;;;;5098764;28;20039;-60
2021/07/31 02:33:51;;;;;;;2.53;1.50;;;18.50;57.00;;;;;;5091503;28;20430;-56
2021/07/31 02:36:18;;;;;;;2.40;1.25;;;18.60;55.40;;;;;;5091115;28;20038;-55
2021/07/31 02:38:46;;;;;;;3.95;1.20;;;18.60;56.90;;;;;;5080977;28;20035;-52
2021/07/31 02:41:13;;;;;;;2.47;1.30;;;18.60;58.40;;;;;;5077364;28;20024;-56
2021/07/31 02:43:41;;;;;;;2.42;1.45;;;18.80;57.20;;;;;;5096137;28;20630;-59
2021/07/31 02:46:10;;;;;;;2.03;1.45;;;18.90;55.70;;;;;;5096218;28;20027;-58
2021/07/31 02:48:38;;;;;;;3.03;1.42;;;18.90;56.00;;;;;;5095514;28;20401;-52
2021/07/31 02:51:11;;;;;;;5.03;1.42;;;18.70;56.60;;;;;;5093057;28;20119;-54
2021/07/31 02:53:39;;;;;;;8.90;1.70;;;18.70;57.20;;;;;;5094894;28;20137;-52
2021/07/31 02:56:07;;;;;;;3.10;1.10;;;19.00;57.60;;;;;;5091238;28;20038;-54
2021/07/31 02:58:36;;;;;;;4.38;1.35;;;19.10;56.00;;;;;;5087544;28;20032;-54
2021/07/31 03:01:10;;;;;;;5.65;1.10;;;19.40;54.80;;;;;;5069748;28;20050;-43
2021/07/31 03:03:37;;;;;;;1.85;1.05;;;19.60;54.30;;;;;;5087335;28;20038;-59
2021/07/31 03:06:05;;;;;;;2.33;1.55;;;19.50;54.30;;;;;;5088211;28;20078;-55
2021/07/31 03:08:32;;;;;;;4.03;1.10;;;19.50;53.40;;;;;;5087992;28;20429;-57
2021/07/31 03:11:03;;;;;;;12.05;2.80;;;19.40;54.90;;;;;;5087784;28;20024;-62
2021/07/31 03:13:31;;;;;;;7.22;1.25;;;19.50;53.60;;;;;;5087450;28;20774;-55
2021/07/31 03:15:59;;;;;;;5.90;1.17;;;19.40;53.60;;;;;;5069610;28;20031;-55
2021/07/31 03:18:27;;;;;;;2.95;1.00;;;19.40;53.70;;;;;;5087529;28;20713;-57
2021/07/31 03:20:55;;;;;;;4.13;1.08;;;19.50;55.30;;;;;;5069277;28;20032;-57
2021/07/31 03:23:24;;;;;;;7.65;1.33;;;19.60;55.20;;;;;;5087316;28;20427;-58
2021/07/31 03:26:01;;;;;;;4.95;1.27;;;19.90;54.50;;;;;;5087891;28;20043;-58
2021/07/31 03:28:29;;;;;;;3.80;1.23;;;20.20;56.10;;;;;;5086926;28;20174;-58
2021/07/31 03:30:58;;;;;;;4.05;1.33;;;20.00;55.00;;;;;;5085251;28;20489;-57
2021/07/31 03:33:25;;;;;;;10.65;1.55;;;19.90;56.10;;;;;;5089208;28;20066;-61
2021/07/31 03:35:54;;;;;;;5.40;1.75;;;20.10;56.00;;;;;;5095023;28;20035;-63
2021/07/31 03:38:22;;;;;;;6.55;1.67;;;20.30;55.50;;;;;;5096042;28;20058;-59
2021/07/31 03:40:52;;;;;;;5.25;1.23;;;20.40;53.50;;;;;;5099955;28;20020;-61
2021/07/31 03:43:19;;;;;;;5.95;1.25;;;20.60;53.60;;;;;;5092898;28;20435;-57
2021/07/31 03:45:47;;;;;;;2.03;1.27;;;20.90;53.40;;;;;;5095751;28;20055;-60
2021/07/31 03:48:14;;;;;;;2.50;1.23;;;20.80;53.90;;;;;;5094719;28;20032;-54
2021/07/31 03:50:42;;;;;;;3.40;1.38;;;21.00;53.30;;;;;;5098307;28;20020;-57
2021/07/31 03:53:09;;;;;;;5.10;1.23;;;20.90;53.60;;;;;;5098897;28;20051;-56
2021/07/31 03:55:36;;;;;;;5.45;1.55;;;21.00;53.10;;;;;;5094224;28;20032;-61
2021/07/31 03:58:04;;;;;;;9.52;2.53;;;21.10;53.00;;;;;;5097522;28;20382;-57
2021/07/31 04:00:32;;;;;;;2.97;1.75;;;21.20;52.70;;;;;;5095953;28;20085;-58
2021/07/31 04:03:00;;;;;;;4.68;1.80;;;21.40;51.20;;;;;;5095321;28;20066;-55
2021/07/31 04:05:27;;;;;;;3.88;1.08;;;21.50;52.20;;;;;;5080751;28;20054;-59
2021/07/31 04:07:55;;;;;;;3.15;1.60;;;21.40;52.50;;;;;;5077116;28;20099;-54
2021/07/31 04:10:22;;;;;;;3.30;1.35;;;21.50;52.30;;;;;;5079792;28;20131;-60
2021/07/31 04:12:49;;;;;;;4.57;1.30;;;21.40;53.10;;;;;;5097787;28;20067;-57
2021/07/31 04:15:17;;;;;;;3.17;1.00;;;21.50;51.40;;;;;;5094225;28;20435;-56
2021/07/31 04:17:44;;;;;;;4.65;1.00;;;21.70;50.10;;;;;;5098237;28;20027;-58
2021/07/31 04:20:15;;;;;;;2.55;1.23;;;21.80;50.20;;;;;;5090853;28;20032;-61
2021/07/31 04:22:47;;;;;;;1.23;0.82;;;21.80;51.40;;;;;;5092784;28;20035;-49
2021/07/31 04:25:15;;;;;;;2.13;0.80;;;21.80;50.60;;;;;;5093786;28;20592;-54
2021/07/31 04:27:42;;;;;;;3.80;1.20;;;21.80;51.50;;;;;;5093325;28;20343;-58
2021/07/31 04:30:10;;;;;;;5.97;1.40;;;21.80;51.30;;;;;;5092944;28;20051;-62
2021/07/31 04:32:37;;;;;;;2.65;0.93;;;21.70;51.90;;;;;;5093447;28;20124;-53
2021/07/31 04:35:05;;;;;;;3.72;0.90;;;21.70;51.80;;;;;;5094444;28;20027;-56
2021/07/31 04:37:33;;;;;;;2.58;1.00;;;21.80;50.90;;;;;;5094559;28;20028;-58
2021/07/31 04:40:21;;;;;;;2.45;0.80;;;21.80;50.70;;;;;;5086658;28;20040;-56
2021/07/31 04:42:49;;;;;;;4.00;0.88;;;22.20;50.70;;;;;;5086224;28;20024;-54
2021/07/31 04:45:16;;;;;;;4.15;1.15;;;21.90;51.60;;;;;;5067854;28;20036;-57
2021/07/31 04:47:44;;;;;;;4.15;0.80;;;21.90;51.60;;;;;;5068415;28;20040;-57
2021/07/31 04:50:14;;;;;;;2.22;0.98;;;21.90;51.30;;;;;;5086312;28;20117;-61
2021/07/31 04:52:41;;;;;;;3.55;1.00;;;21.80;51.90;;;;;;5086315;28;20024;-58
2021/07/31 04:55:09;;;;;;;3.00;1.30;;;22.00;51.40;;;;;;5086461;28;20102;-55
2021/07/31 04:57:36;;;;;;;2.20;1.02;;;22.00;50.90;;;;;;5086701;28;20028;-57
2021/07/31 05:00:04;;;;;;;2.35;1.10;;;21.80;51.80;;;;;;5086681;28;20165;-56
2021/07/31 05:02:33;;;;;;;7.00;1.10;;;21.80;51.60;;;;;;5089267;28;20076;-56
2021/07/31 05:05:00;;;;;;;1.10;0.57;;;21.90;51.50;;;;;;5105332;28;20372;-55
2021/07/31 05:07:28;;;;;;;1.75;1.08;;;21.90;51.50;;;;;;5100844;28;20109;-58
2021/07/31 05:09:55;;;;;;;2.85;1.05;;;21.90;51.70;;;;;;5099567;28;20413;-57
2021/07/31 05:12:23;;;;;;;2.13;0.98;;;21.80;51.10;;;;;;5099766;28;20147;-55
2021/07/31 05:14:53;;;;;;;2.47;0.90;;;22.00;51.50;;;;;;5099924;28;20071;-55
2021/07/31 05:17:20;;;;;;;3.90;0.80;;;22.20;51.40;;;;;;5075800;28;20474;-56
2021/07/31 05:19:48;;;;;;;4.18;0.90;;;22.20;51.10;;;;;;5106557;28;20051;-59
2021/07/31 05:22:17;;;;;;;1.38;0.75;;;22.00;51.20;;;;;;5087881;28;20027;-57
2021/07/31 05:24:44;;;;;;;0.98;0.60;;;22.00;51.60;;;;;;5102974;28;20044;-56
2021/07/31 05:27:12;;;;;;;3.22;0.77;;;22.00;51.90;;;;;;5106189;28;20382;-59
2021/07/31 05:29:39;;;;;;;7.22;1.00;;;21.90;51.90;;;;;;5106112;28;20047;-62
2021/07/31 05:32:07;;;;;;;2.80;0.95;;;21.80;52.40;;;;;;5106437;28;20066;-59
2021/07/31 05:34:34;;;;;;;6.40;1.63;;;21.60;52.70;;;;;;5106197;28;20069;-60
2021/07/31 05:37:02;;;;;;;2.45;0.75;;;21.30;53.10;;;;;;5088900;28;20027;-59
2021/07/31 05:39:33;;;;;;;4.18;1.25;;;21.30;53.60;;;;;;5100321;28;20059;-58
2021/07/31 05:42:05;;;;;;;3.97;2.00;;;21.10;54.00;;;;;;5106385;28;20027;-57
2021/07/31 05:44:33;;;;;;;2.33;0.80;;;20.80;54.20;;;;;;5106050;28;20303;-59
2021/07/31 05:47:00;;;;;;;1.92;0.90;;;20.60;54.90;;;;;;5106003;28;20092;-57
2021/07/31 05:49:37;;;;;;;6.05;1.27;;;20.30;55.70;;;;;;5087591;28;20472;-62
2021/07/31 05:52:06;;;;;;;1.48;0.85;;;20.30;56.40;;;;;;5105993;28;20062;-55
2021/07/31 05:54:35;;;;;;;2.33;1.00;;;20.30;56.30;;;;;;5105406;28;20424;-59
2021/07/31 05:57:04;;;;;;;3.97;1.10;;;20.20;56.40;;;;;;5087044;28;20085;-56
2021/07/31 05:59:31;;;;;;;2.92;1.00;;;20.10;56.70;;;;;;5087758;28;20035;-59
2021/07/31 06:01:59;;;;;;;4.55;2.05;;;20.00;57.20;;;;;;5106040;28;20023;-58
2021/07/31 06:04:29;;;;;;;4.28;1.13;;;20.00;57.40;;;;;;5105885;28;20085;-58
2021/07/31 06:06:57;;;;;;;4.05;0.63;;;20.00;57.70;;;;;;5105649;28;20089;-60
2021/07/31 06:09:24;;;;;;;2.80;1.05;;;19.90;58.00;;;;;;5105387;28;20020;-54
2021/07/31 06:11:55;;;;;;;3.78;1.30;;;19.80;58.40;;;;;;5087739;28;20486;-55
2021/07/31 06:14:22;;;;;;;2.33;1.08;;;19.80;58.50;;;;;;5105779;28;20027;-54
2021/07/31 06:16:49;;;;;;;2.85;1.10;;;19.70;58.60;;;;;;5105548;28;20028;-57
2021/07/31 06:19:17;;;;;;;6.95;1.58;;;19.60;59.60;;;;;;5105283;28;20592;-57
2021/07/31 06:21:44;;;;;;;2.92;0.95;;;19.60;59.50;;;;;;5105380;28;20023;-56
2021/07/31 06:24:12;;;;;;;3.08;1.10;;;19.60;59.70;;;;;;5104740;28;20118;-56
2021/07/31 06:26:39;;;;;;;3.30;0.90;;;19.50;60.10;;;;;;5105562;28;20027;-54
2021/07/31 06:29:07;;;;;;;4.28;1.38;;;19.50;60.50;;;;;;5105108;28;20044;-54
2021/07/31 06:31:34;;;;;;;13.32;1.60;;;19.40;60.60;;;;;;5105617;28;20030;-56
2021/07/31 06:34:04;;;;;;;7.32;1.52;;;19.40;60.60;;;;;;5104879;28;20023;-59
2021/07/31 06:36:33;;;;;;;1.90;0.88;;;19.40;61.70;;;;;;5105534;28;20038;-56
2021/07/31 06:39:04;;;;;;;4.68;1.20;;;19.30;61.50;;;;;;5104727;28;20020;-59
2021/07/31 06:41:32;;;;;;;4.80;1.25;;;19.30;61.80;;;;;;5103344;28;20417;-60
2021/07/31 06:43:59;;;;;;;2.97;1.23;;;19.20;62.60;;;;;;5104565;28;20043;-53
2021/07/31 06:46:28;;;;;;;4.15;1.10;;;19.10;63.60;;;;;;5091630;28;20064;-52
2021/07/31 06:48:57;;;;;;;2.58;0.93;;;19.10;62.20;;;;;;5083970;28;20028;-53
2021/07/31 06:51:24;;;;;;;6.65;1.45;;;19.00;62.30;;;;;;5064097;28;20153;-58
2021/07/31 06:53:52;;;;;;;4.07;1.25;;;19.00;63.20;;;;;;5084283;28;20036;-50
2021/07/31 06:56:20;;;;;;;5.40;1.70;;;19.10;63.70;;;;;;5082440;28;20390;-50
2021/07/31 06:58:48;;;;;;;2.47;1.23;;;19.00;63.10;;;;;;5087927;28;20036;-58
2021/07/31 07:01:18;;;;;;;4.38;2.17;;;19.00;63.60;;;;;;5095786;28;20028;-59
2021/07/31 07:03:49;;;;;;;3.38;2.40;;;18.90;63.00;;;;;;5095062;28;20035;-57
2021/07/31 07:06:20;;;;;;;4.75;2.95;;;18.90;63.90;;;;;;5090927;28;20402;-57
2021/07/31 07:08:48;;;;;;;10.40;3.28;;;18.90;64.00;;;;;;5092165;28;20118;-53
2021/07/31 07:11:17;;;;;;;5.25;3.17;;;18.80;63.70;;;;;;5078038;28;20051;-55
2021/07/31 07:13:44;;;;;;;5.95;3.28;;;18.90;64.50;;;;;;5094255;28;20026;-61
2021/07/31 07:16:18;;;;;;;7.25;3.92;;;18.80;63.50;;;;;;5092258;28;20036;-60
2021/07/31 07:18:48;;;;;;;6.95;3.78;;;18.80;64.30;;;;;;5092383;28;20057;-51
2021/07/31 07:21:15;;;;;;;5.90;4.20;;;18.80;64.60;;;;;;5065770;28;20034;-54
2021/07/31 07:23:43;;;;;;;8.65;4.38;;;18.80;64.70;;;;;;5090700;28;20038;-58
2021/07/31 07:26:12;;;;;;;6.90;4.40;;;18.80;65.20;;;;;;5098521;28;20115;-59
2021/07/31 07:28:40;;;;;;;10.50;5.00;;;18.70;64.70;;;;;;5099260;28;20408;-60
2021/07/31 07:31:12;;;;;;;9.85;5.57;;;18.70;65.20;;;;;;5097105;28;20032;-61
2021/07/31 07:33:40;;;;;;;8.10;5.63;;;18.60;64.20;;;;;;5096435;28;20072;-59
2021/07/31 07:36:15;;;;;;;7.90;5.47;;;18.60;65.50;;;;;;5098221;28;20080;-61
2021/07/31 07:38:43;;;;;;;8.63;5.50;;;18.60;64.70;;;;;;5097197;28;20093;-59
2021/07/31 07:41:12;;;;;;;5.95;5.32;;;18.60;65.20;;;;;;5074944;28;20024;-60
2021/07/31 07:43:40;;;;;;;7.68;6.07;;;18.60;65.00;;;;;;5103258;28;20035;-62
2021/07/31 07:46:11;;;;;;;8.68;6.22;;;18.60;65.10;;;;;;5104136;28;20039;-63
2021/07/31 07:48:39;;;;;;;7.53;6.27;;;18.60;65.50;;;;;;5095060;28;20055;-56
2021/07/31 07:51:06;;;;;;;9.50;7.32;;;18.50;65.00;;;;;;5099132;28;20024;-58
2021/07/31 07:53:34;;;;;;;10.80;7.97;;;18.40;65.40;;;;;;5098815;28;20129;-59
2021/07/31 07:56:01;;;;;;;13.18;6.22;;;18.50;65.20;;;;;;5101365;28;20494;-56
2021/07/31 07:58:29;;;;;;;11.25;7.47;;;18.50;66.00;;;;;;5096029;28;20028;-59
2021/07/31 08:00:58;;;;;;;8.60;6.72;;;18.40;65.40;;;;;;5102742;28;20011;-63
2021/07/31 08:03:25;;;;;;;9.13;6.15;;;18.40;65.50;;;;;;5095222;28;20387;-57
2021/07/31 08:05:52;;;;;;;8.80;6.32;;;18.40;65.90;;;;;;5094173;28;20039;-63
2021/07/31 08:08:20;;;;;;;13.10;6.43;;;18.40;65.70;;;;;;5094522;28;20035;-56
2021/07/31 08:10:47;;;;;;;7.15;5.57;;;18.30;66.40;;;;;;5099338;28;20043;-58
2021/07/31 08:13:15;;;;;;;8.93;6.60;;;18.30;66.90;;;;;;5097900;28;20107;-57
2021/07/31 08:15:42;;;;;;;8.10;7.10;;;18.30;67.00;;;;;;5092812;28;20085;-55
2021/07/31 08:18:11;;;;;;;10.10;6.47;;;18.20;66.30;;;;;;5099578;28;20465;-60
2021/07/31 08:20:38;;;;;;;9.82;6.57;;;18.20;66.80;;;;;;5096109;28;20035;-60
2021/07/31 08:23:06;;;;;;;10.93;5.22;;;18.20;66.00;;;;;;5091428;28;20032;-63
2021/07/31 08:25:34;;;;;;;9.63;5.97;;;18.10;66.80;;;;;;5101694;28;20122;-60
2021/07/31 08:28:02;;;;;;;8.80;6.07;;;18.10;66.40;;;;;;5079770;28;20073;-61
2021/07/31 08:30:29;;;;;;;10.88;5.40;;;18.10;66.40;;;;;;5076468;28;20475;-60
2021/07/31 08:32:57;;;;;;;11.95;5.65;;;18.00;66.50;;;;;;5094447;28;20036;-60
2021/07/31 08:35:24;;;;;;;10.13;5.88;;;18.00;66.40;;;;;;5093547;28;20032;-58
2021/07/31 08:37:51;;;;;;;7.03;4.50;;;17.90;66.40;;;;;;5093976;28;20061;-55
2021/07/31 08:40:20;;;;;;;7.75;5.15;;;18.00;66.90;;;;;;5097152;28;20024;-56
2021/07/31 08:42:48;;;;;;;8.88;4.85;;;18.00;66.60;;;;;;5099022;28;20024;-55
2021/07/31 08:45:16;;;;;;;6.90;5.07;;;18.00;66.70;;;;;;5094679;28;20038;-57
2021/07/31 08:47:49;;;;;;;8.25;5.07;;;18.00;66.60;;;;;;5090984;28;20588;-56
2021/07/31 08:50:19;;;;;;;8.20;5.38;;;17.90;66.60;;;;;;5093635;28;20063;-56
2021/07/31 08:52:52;;;;;;;8.27;4.60;;;17.90;66.70;;;;;;5097946;28;20454;-57
2021/07/31 08:55:20;;;;;;;7.20;5.20;;;17.90;66.80;;;;;;5096380;28;20119;-55
2021/07/31 08:57:47;;;;;;;10.07;5.28;;;17.90;66.80;;;;;;5091853;28;20032;-55
2021/07/31 09:00:15;;;;;;;5.25;3.95;;;17.90;66.70;;;;;;5093201;28;20488;-59
2021/07/31 09:02:47;;;;;;;5.47;4.40;;;17.90;66.90;;;;;;5093630;28;20034;-53
2021/07/31 09:05:35;;;;;;;7.35;4.38;;;17.90;66.80;;;;;;5091733;28;20371;-61
2021/07/31 09:08:06;;;;;;;8.25;4.63;;;17.90;66.80;;;;;;5092844;28;20394;-60
2021/07/31 09:10:36;;;;;;;4.40;3.92;;;17.80;66.80;;;;;;5094765;28;20183;-54
2021/07/31 09:13:12;;;;;;;5.13;4.07;;;17.90;66.90;;;;;;5097748;28;20504;-55
2021/07/31 09:15:46;;;;;;;6.22;3.67;;;17.80;66.80;;;;;;5092949;28;20032;-59
2021/07/31 09:18:31;;;;;;;6.22;4.65;;;17.80;66.90;;;;;;5097431;28;20035;-56
2021/07/31 09:21:12;;;;;;;5.35;3.85;;;17.80;66.80;;;;;;5096168;28;21179;-57
2021/07/31 09:23:46;;;;;;;6.45;4.15;;;17.80;66.70;;;;;;5093242;28;20073;-53
2021/07/31 09:26:15;;;;;;;6.30;3.47;;;17.80;66.80;;;;;;5094646;28;20127;-57
2021/07/31 09:28:43;;;;;;;5.35;3.75;;;17.80;66.70;;;;;;5088186;28;20098;-53
2021/07/31 09:31:20;;;;;;;5.35;3.75;;;17.80;66.70;;;;;;5096673;28;20035;-56
2021/07/31 09:33:49;;;;;;;4.20;3.45;;;17.80;66.70;;;;;;5093666;28;20019;-58
2021/07/31 09:36:17;;;;;;;4.85;3.28;;;17.80;66.50;;;;;;5091440;28;20019;-58
2021/07/31 09:38:49;;;;;;;5.18;3.70;;;17.80;66.70;;;;;;5091241;28;20099;-58
2021/07/31 09:41:29;;;;;;;6.32;3.40;;;17.80;66.50;;;;;;5096202;28;20137;-56
2021/07/31 09:44:16;;;;;;;4.55;3.35;;;17.80;66.20;;;;;;5093803;28;20047;-58
2021/07/31 09:46:47;;;;;;;4.45;3.33;;;17.80;66.10;;;;;;5095249;28;20074;-57
2021/07/31 09:49:17;;;;;;;4.95;3.00;;;17.80;66.20;;;;;;5094037;28;20110;-57
2021/07/31 09:51:46;;;;;;;4.85;3.45;;;17.80;66.10;;;;;;5091952;28;20447;-52
2021/07/31 09:54:16;;;;;;;5.43;3.15;;;17.80;65.70;;;;;;5092946;28;20046;-56
2021/07/31 09:56:46;;;;;;;6.35;3.22;;;17.90;65.60;;;;;;5092052;28;20051;-61
2021/07/31 09:59:15;;;;;;;4.18;3.25;;;17.90;66.00;;;;;;5093558;28;20479;-62
2021/07/31 10:01:46;;;;;;;3.50;3.10;;;17.80;65.80;;;;;;5095940;28;20080;-63
2021/07/31 10:04:14;;;;;;;7.18;3.65;;;17.90;65.90;;;;;;5101723;28;20048;-63
2021/07/31 10:06:42;;;;;;;4.82;2.85;;;17.90;65.20;;;;;;5098876;28;20047;-56
2021/07/31 10:09:11;;;;;;;5.55;3.28;;;17.80;65.50;;;;;;5093659;28;20168;-60
2021/07/31 10:11:40;;;;;;;5.70;3.20;;;17.80;65.80;;;;;;5103534;28;20028;-60
2021/07/31 10:14:09;;;;;;;3.90;3.15;;;17.80;65.80;;;;;;5106669;28;20031;-59
2021/07/31 10:16:39;;;;;;;5.93;3.38;;;17.80;65.90;;;;;;5105941;28;20036;-61
2021/07/31 10:19:08;;;;;;;5.30;3.17;;;17.80;65.40;;;;;;5106646;28;20031;-59
2021/07/31 10:21:58;;;;;;;5.57;2.95;;;17.80;65.90;;;;;;5105631;28;20073;-59
2021/07/31 10:24:30;;;;;;;4.72;3.45;;;17.80;65.50;;;;;;5105393;28;20040;-60
2021/07/31 10:27:15;;;;;;;5.97;3.40;;;17.70;66.20;;;;;;5105290;28;20027;-60
2021/07/31 10:29:47;;;;;;;4.25;3.28;;;17.70;66.30;;;;;;5085706;28;20048;-56
2021/07/31 10:32:21;;;;;;;4.72;2.63;;;17.60;65.60;;;;;;5084756;28;20032;-58
2021/07/31 10:35:03;;;;;;;5.00;2.60;;;17.60;66.60;;;;;;5084657;28;20028;-61
2021/07/31 10:39:58;;;;;;;7.10;2.63;;;17.60;66.30;;;;;;5084511;28;20104;-59
2021/07/31 10:42:26;;;;;;;5.05;2.58;;;17.60;66.50;;;;;;5084753;28;20031;-56
2021/07/31 10:45:16;;;;;;;3.55;2.45;;;17.60;66.60;;;;;;5084260;28;20577;-58
2021/07/31 10:48:00;;;;;;;4.32;2.90;;;17.50;67.50;;;;;;5074303;28;20064;-57
2021/07/31 10:50:27;;;;;;;4.07;2.78;;;17.50;66.90;;;;;;5084831;28;20060;-57
2021/07/31 10:53:05;;;;;;;3.92;2.33;;;17.50;66.80;;;;;;5084468;28;20482;-60
2021/07/31 10:55:39;;;;;;;2.80;2.60;;;17.50;67.00;;;;;;5084683;28;20030;-57
2021/07/31 10:58:33;;;;;;;4.28;2.47;;;17.50;66.70;;;;;;5084338;28;20123;-61
2021/07/31 11:01:22;;;;;;;5.63;2.97;;;17.50;66.70;;;;;;5068127;28;20043;-62
2021/07/31 11:03:50;;;;;;;4.93;2.65;;;17.50;67.00;;;;;;5088827;28;20105;-60
2021/07/31 11:06:18;;;;;;;3.28;2.70;;;17.50;66.90;;;;;;5088503;28;20031;-60
2021/07/31 11:08:52;;;;;;;3.42;2.38;;;17.50;66.90;;;;;;5088419;28;20470;-61
2021/07/31 11:11:27;;;;;;;4.53;2.58;;;17.50;66.30;;;;;;5094692;28;20040;-60
2021/07/31 11:13:55;;;;;;;6.70;2.55;;;17.50;66.90;;;;;;5108451;28;21149;-59
2021/07/31 11:16:26;;;;;;;5.25;2.35;;;17.50;67.00;;;;;;5108959;28;20032;-59
2021/07/31 11:19:02;;;;;;;3.35;2.47;;;17.40;66.90;;;;;;5108430;28;20103;-59
2021/07/31 11:21:41;;;;;;;5.53;2.40;;;17.40;67.00;;;;;;5108402;28;20416;-58
2021/07/31 11:24:10;;;;;;;3.53;2.63;;;17.40;67.20;;;;;;5108358;28;20506;-61
2021/07/31 11:26:39;;;;;;;4.80;2.55;;;17.40;67.30;;;;;;5108696;28;20134;-61
2021/07/31 11:29:13;;;;;;;6.90;2.67;;;17.40;67.00;;;;;;5108021;28;20069;-61
2021/07/31 11:31:44;;;;;;;4.78;2.38;;;17.40;67.30;;;;;;5108528;28;20042;-59
2021/07/31 11:34:16;;;;;;;4.50;2.72;;;17.40;67.40;;;;;;5108083;28;20112;-52
2021/07/31 11:36:55;;;;;;;5.28;2.30;;;17.40;67.40;;;;;;5108404;28;20028;-56
2021/07/31 11:39:23;;;;;;;5.13;2.10;;;17.40;67.50;;;;;;5090196;28;20533;-53
2021/07/31 11:41:51;;;;;;;6.22;2.47;;;17.40;67.30;;;;;;5108746;28;20474;-57
2021/07/31 11:44:32;;;;;;;5.22;2.42;;;17.40;67.20;;;;;;5107590;28;20059;-56
2021/07/31 11:47:03;;;;;;;4.50;1.85;;;17.40;67.50;;;;;;5108182;28;20024;-54
2021/07/31 11:49:36;;;;;;;3.47;1.90;;;17.40;67.30;;;;;;5108688;28;20031;-54
2021/07/31 11:52:08;;;;;;;2.80;2.05;;;17.30;66.70;;;;;;5107920;28;20027;-55
2021/07/31 11:54:38;;;;;;;;;;;17.40;67.30;;;;;;5108467;28;20032;-54
2021/07/31 11:57:06;;;;;;;2.70;1.77;;;17.40;67.00;;;;;;5107875;28;19915;-55
2021/07/31 11:59:40;;;;;;;3.33;1.90;;;17.40;67.10;;;;;;5108057;28;21194;-56
2021/07/31 12:02:08;;;;;;;4.80;1.83;;;17.40;67.00;;;;;;5108115;28;20139;-61
2021/07/31 12:04:42;;;;;;;3.20;2.10;;;17.40;67.00;;;;;;5108377;28;20040;-60
2021/07/31 12:07:23;;;;;;;4.22;2.08;;;17.40;67.00;;;;;;5108059;28;20478;-60
2021/07/31 12:10:06;;;;;;;4.18;2.25;;;17.40;67.10;;;;;;5107272;28;20036;-60
2021/07/31 12:12:36;;;;;;;4.63;2.10;;;17.40;66.90;;;;;;5107975;28;21059;-59
2021/07/31 12:15:14;;;;;;;4.32;1.80;;;17.40;67.00;;;;;;5107536;28;20035;-62
2021/07/31 12:18:02;;;;;;;4.15;2.33;;;17.40;67.10;;;;;;5107847;28;20055;-56
2021/07/31 12:20:42;;;;;;;2.58;1.70;;;17.30;67.00;;;;;;5088867;28;20042;-57
2021/07/31 12:23:12;;;;;;;2.72;1.95;;;17.30;67.00;;;;;;5107736;28;20036;-59
2021/07/31 12:26:00;;;;;;;2.38;1.90;;;17.30;67.20;;;;;;5107273;28;20071;-61
2021/07/31 12:28:43;;;;;;;3.72;1.77;;;17.30;67.10;;;;;;5107121;28;20084;-60
2021/07/31 12:31:31;;;;;;;14.57;2.00;;;17.30;67.10;;;;;;5107434;28;20058;-60
2021/07/31 12:33:59;;;;;;;6.10;1.90;;;17.30;66.70;;;;;;5107230;28;20822;-59
2021/07/31 12:36:27;;;;;;;4.53;1.92;;;17.30;67.00;;;;;;5106897;28;20020;-58
2021/07/31 12:38:54;;;;;;;3.42;1.50;;;17.30;67.10;;;;;;5106750;28;20032;-57
2021/07/31 12:41:25;;;;;;;5.50;1.60;;;17.30;67.20;;;;;;5107094;28;20074;-57
2021/07/31 12:43:53;;;;;;;2.78;1.67;;;17.30;67.00;;;;;;5107062;28;20035;-58
2021/07/31 12:46:21;;;;;;;3.40;1.73;;;17.30;67.00;;;;;;5107896;28;20077;-60
2021/07/31 12:48:50;;;;;;;3.53;1.83;;;17.30;66.90;;;;;;5106952;28;20110;-58
2021/07/31 12:51:18;;;;;;;2.80;1.65;;;17.30;67.10;;;;;;5106844;28;20038;-59
2021/07/31 12:53:45;;;;;;;3.67;1.83;;;17.20;67.00;;;;;;5106936;28;20023;-54
2021/07/31 12:56:13;;;;;;;4.47;2.00;;;17.30;66.90;;;;;;5106789;28;20132;-60
2021/07/31 12:58:41;;;;;;;3.15;1.83;;;17.30;67.10;;;;;;5106861;28;20139;-55
2021/07/31 13:01:11;;;;;;;4.43;1.88;;;17.20;66.80;;;;;;5106850;28;20022;-61
2021/07/31 13:03:39;;;;;;;4.10;1.73;;;17.20;67.00;;;;;;5106711;28;20030;-61